Decoded Metar for KW29 (STEVENSVILLE in MD, USA) (IATA:W29) | Meteo·Mobile Aviation Weather
aviador You're here:

KW29 Decoded Metar

STEVENSVILLE in MD, USA
Report Time2018-12-14 08:40:00
UTC Time2018-12-14 08:55:12
Flight Rules mvfr MVFR
WindCalm
Visibility8047 m
Phenomena:Mist
Clouds:N/A
CeilingNone
Temp02°C (ISA -13)
Dew Point02°C (100% RH)
AAT0.3°C
QNH1029 hPa
Density Alt-1,969 ft
Elevation49 ft
Report Wrong Elevation
Raw Report
KW29 140840Z AUTO 00000KT 5SM BR CLR 02/02 A3039 RMK AO2=

Extra information for KW29:More info

Metar Taf Metar & Taf Last 4 Metars F.Rules Stats Wind Profile Meteogram Temp Stats Airport Information Weather charts Add Link Nearby VenuesMetar ALERT Operation Metar Decoded Social comments

AIRNAV info for KW29